createdAt,value
2018-08-19T00:00:30.584Z,23.09
2018-08-19T00:01:02.175Z,23.10
2018-08-19T00:01:33.758Z,23.13
2018-08-19T00:02:05.347Z,23.19
2018-08-19T00:02:36.942Z,23.19
2018-08-19T00:03:08.555Z,23.15
2018-08-19T00:03:40.203Z,23.13
2018-08-19T00:04:11.790Z,23.12
2018-08-19T00:04:43.399Z,23.10
2018-08-19T00:05:14.996Z,23.10
2018-08-19T00:05:46.596Z,23.12
2018-08-19T00:06:18.205Z,23.18
2018-08-19T00:06:49.828Z,23.21
2018-08-19T00:07:21.435Z,23.26
2018-08-19T00:07:53.033Z,23.31
2018-08-19T00:08:24.772Z,23.34
2018-08-19T00:08:56.430Z,23.36
2018-08-19T00:09:28.047Z,23.37
2018-08-19T00:09:59.659Z,23.38
2018-08-19T00:10:31.261Z,23.38
2018-08-19T00:11:02.851Z,23.41
2018-08-19T00:11:34.449Z,23.40
2018-08-19T00:12:06.045Z,23.37
2018-08-19T00:12:37.650Z,23.33
2018-08-19T00:13:09.248Z,23.33
2018-08-19T00:13:40.850Z,23.32
2018-08-19T00:14:12.464Z,23.32
2018-08-19T00:14:44.061Z,23.31
2018-08-19T00:15:15.666Z,23.28
2018-08-19T00:15:47.306Z,23.24
2018-08-19T00:16:18.915Z,23.20
2018-08-19T00:16:50.562Z,23.17
2018-08-19T00:17:22.166Z,23.16
2018-08-19T00:17:53.768Z,23.08
2018-08-19T00:18:26.036Z,23.05
2018-08-19T00:18:57.642Z,23.03
2018-08-19T00:19:29.240Z,23.01
2018-08-19T00:20:00.842Z,22.99
2018-08-19T00:20:32.450Z,22.96
2018-08-19T00:21:04.058Z,22.94
2018-08-19T00:21:35.661Z,22.91
2018-08-19T00:22:07.319Z,22.90
2018-08-19T00:22:38.915Z,22.93
2018-08-19T00:23:10.509Z,22.96
2018-08-19T00:23:42.108Z,22.95
2018-08-19T00:24:13.709Z,22.93
2018-08-19T00:24:45.304Z,22.94
2018-08-19T00:25:16.902Z,22.91
2018-08-19T00:25:48.515Z,22.88
2018-08-19T00:26:20.117Z,22.85
2018-08-19T00:26:51.741Z,22.85
2018-08-19T00:27:23.399Z,22.84
2018-08-19T00:27:55.007Z,22.80
2018-08-19T00:28:26.600Z,22.79
2018-08-19T00:28:58.207Z,22.81
2018-08-19T00:29:29.790Z,22.82
2018-08-19T00:30:01.389Z,22.86
2018-08-19T00:35:22.287Z,22.85
2018-08-19T00:35:53.880Z,22.83
2018-08-19T00:36:25.481Z,22.81
2018-08-19T00:36:57.085Z,22.81
2018-08-19T00:37:28.686Z,22.80
2018-08-19T00:38:00.303Z,22.80
2018-08-19T00:38:31.901Z,22.77
2018-08-19T00:39:03.510Z,22.76
2018-08-19T00:39:35.118Z,22.78
2018-08-19T00:40:06.716Z,22.79
2018-08-19T00:40:38.309Z,22.80
2018-08-19T00:41:09.914Z,22.80
2018-08-19T00:41:41.517Z,22.81
2018-08-19T00:42:13.128Z,22.83
2018-08-19T00:42:44.714Z,22.89
2018-08-19T00:43:16.322Z,22.92
2018-08-19T00:43:48.516Z,22.91
2018-08-19T00:44:20.131Z,22.88
2018-08-19T00:44:51.733Z,22.87
2018-08-19T00:45:23.338Z,22.86
2018-08-19T00:45:54.944Z,22.87
2018-08-19T00:46:26.540Z,22.90
2018-08-19T00:46:58.130Z,22.92
2018-08-19T00:47:29.751Z,22.92
2018-08-19T00:48:01.346Z,22.90
2018-08-19T00:48:32.962Z,22.88
2018-08-19T00:49:04.564Z,22.86
2018-08-19T00:49:36.170Z,22.83
2018-08-19T00:50:07.765Z,22.83
2018-08-19T00:50:39.364Z,22.79
2018-08-19T00:51:10.947Z,22.76
2018-08-19T00:51:42.595Z,22.74
2018-08-19T00:52:14.202Z,22.71
2018-08-19T00:52:45.782Z,22.69
2018-08-19T00:53:17.372Z,22.66
2018-08-19T00:53:48.975Z,22.63
2018-08-19T00:54:20.564Z,22.64
2018-08-19T00:54:52.154Z,22.67
2018-08-19T00:55:23.776Z,22.68
2018-08-19T00:55:55.408Z,22.73
2018-08-19T00:56:27.000Z,22.74
2018-08-19T00:56:58.588Z,22.74
2018-08-19T00:57:30.189Z,22.73
2018-08-19T00:58:01.781Z,22.73
2018-08-19T00:58:33.379Z,22.75
2018-08-19T00:59:04.994Z,22.72
2018-08-19T00:59:36.594Z,22.71
2018-08-19T01:00:08.202Z,22.70
2018-08-19T01:00:39.806Z,22.72
2018-08-19T01:01:11.446Z,22.72
2018-08-19T01:01:43.047Z,22.72
2018-08-19T01:02:14.627Z,22.72
2018-08-19T01:02:46.312Z,22.72
2018-08-19T01:03:17.859Z,22.68
2018-08-19T01:03:49.458Z,22.64
2018-08-19T01:04:21.071Z,22.62
2018-08-19T01:04:52.668Z,22.61
2018-08-19T01:05:24.278Z,22.57
2018-08-19T01:05:55.888Z,22.55
2018-08-19T01:06:27.532Z,22.57
2018-08-19T01:06:59.110Z,22.59
2018-08-19T01:07:30.710Z,22.59
2018-08-19T01:08:02.360Z,22.62
2018-08-19T01:08:33.972Z,22.66
2018-08-19T01:09:05.563Z,22.67
2018-08-19T01:09:37.152Z,22.68
2018-08-19T01:10:08.744Z,22.65
2018-08-19T01:10:40.336Z,22.63
2018-08-19T01:11:11.942Z,22.56
2018-08-19T01:11:43.547Z,22.46
2018-08-19T01:12:15.144Z,22.44
2018-08-19T01:12:46.736Z,22.38
2018-08-19T01:13:18.364Z,22.36
2018-08-19T01:13:49.943Z,22.34
2018-08-19T01:14:22.094Z,22.33
2018-08-19T01:14:53.678Z,22.34
2018-08-19T01:15:25.287Z,22.35
2018-08-19T01:15:56.894Z,22.40
2018-08-19T01:16:28.496Z,22.52
2018-08-19T01:17:00.089Z,22.63
2018-08-19T01:17:31.694Z,22.69
2018-08-19T01:18:03.289Z,22.74
2018-08-19T01:18:34.947Z,22.77
2018-08-19T01:19:06.540Z,22.76
2018-08-19T01:19:38.132Z,22.77
2018-08-19T01:20:09.739Z,22.78
2018-08-19T01:20:41.335Z,22.80
2018-08-19T01:21:12.942Z,22.82
2018-08-19T01:21:44.532Z,22.83
2018-08-19T01:22:16.125Z,22.86
2018-08-19T01:22:47.752Z,22.86
2018-08-19T01:23:19.367Z,22.81
2018-08-19T01:23:50.987Z,22.78
2018-08-19T01:24:22.567Z,22.71
2018-08-19T01:24:54.174Z,22.67
2018-08-19T01:25:25.778Z,22.63
2018-08-19T01:25:57.373Z,22.61
2018-08-19T01:26:28.951Z,22.56
2018-08-19T01:27:00.549Z,22.54
2018-08-19T01:27:32.138Z,22.54
2018-08-19T01:28:03.724Z,22.49
2018-08-19T01:28:35.374Z,22.47
2018-08-19T01:29:06.967Z,22.45
2018-08-19T01:29:38.623Z,22.42
2018-08-19T01:30:10.232Z,22.39
2018-08-19T01:30:41.814Z,22.39
2018-08-19T01:31:13.414Z,22.35
2018-08-19T01:31:45.019Z,22.34
2018-08-19T01:32:16.612Z,22.32
2018-08-19T01:32:48.203Z,22.30
2018-08-19T01:33:19.805Z,22.29
2018-08-19T01:33:51.382Z,22.27
2018-08-19T01:34:22.958Z,22.27
2018-08-19T01:34:54.583Z,22.25
2018-08-19T01:35:26.177Z,22.21
2018-08-19T01:35:57.768Z,22.20
2018-08-19T01:36:29.382Z,22.17
2018-08-19T01:37:00.973Z,22.18
2018-08-19T01:37:32.575Z,22.21
2018-08-19T01:38:04.203Z,22.21
2018-08-19T01:38:35.792Z,22.20
2018-08-19T01:39:07.388Z,22.24
2018-08-19T01:39:38.990Z,22.25
2018-08-19T01:40:10.594Z,22.23
2018-08-19T01:40:42.225Z,22.25
2018-08-19T01:41:13.813Z,22.27
2018-08-19T01:41:45.400Z,22.28
2018-08-19T01:42:17.005Z,22.33
2018-08-19T01:42:48.587Z,22.34
2018-08-19T01:43:20.176Z,22.35
2018-08-19T01:43:51.754Z,22.39
2018-08-19T01:44:23.358Z,22.40
2018-08-19T01:44:54.975Z,22.42
2018-08-19T01:45:26.604Z,22.43
2018-08-19T01:45:58.209Z,22.40
2018-08-19T01:46:29.805Z,22.39
2018-08-19T01:47:01.390Z,22.40
2018-08-19T01:47:32.976Z,22.38
2018-08-19T01:48:04.572Z,22.36
2018-08-19T01:48:36.174Z,22.35
2018-08-19T01:49:07.768Z,22.33
2018-08-19T01:49:39.374Z,22.34
2018-08-19T01:50:10.964Z,22.35
2018-08-19T01:50:42.552Z,22.32
2018-08-19T01:51:14.152Z,22.29
2018-08-19T01:51:45.731Z,22.30
2018-08-19T01:52:17.329Z,22.29
2018-08-19T01:52:48.927Z,22.30
2018-08-19T01:53:20.510Z,22.30
2018-08-19T01:53:52.104Z,22.31
2018-08-19T01:54:23.703Z,22.28
2018-08-19T01:54:55.304Z,22.26
2018-08-19T01:55:26.910Z,22.25
2018-08-19T01:55:58.517Z,22.23
2018-08-19T01:56:30.163Z,22.17
2018-08-19T01:57:01.764Z,22.17
2018-08-19T01:57:33.356Z,22.18
2018-08-19T01:58:04.978Z,22.20
2018-08-19T01:58:36.582Z,22.17
2018-08-19T01:59:08.181Z,22.18
2018-08-19T01:59:39.781Z,22.22
2018-08-19T02:00:11.380Z,22.20
2018-08-19T02:00:42.980Z,22.16
2018-08-19T02:01:14.577Z,22.13
2018-08-19T02:01:46.230Z,22.08
2018-08-19T02:02:17.824Z,22.07
2018-08-19T02:02:49.425Z,22.04
2018-08-19T02:03:21.081Z,22.02
2018-08-19T02:03:52.672Z,22.00
2018-08-19T02:04:24.277Z,21.97
2018-08-19T02:04:55.882Z,21.96
2018-08-19T02:05:27.492Z,21.96
2018-08-19T02:05:59.088Z,21.94
2018-08-19T02:06:30.695Z,21.92
2018-08-19T02:07:02.302Z,21.91
2018-08-19T02:07:33.912Z,21.89
2018-08-19T02:08:05.530Z,21.89
2018-08-19T02:08:37.114Z,21.86
2018-08-19T02:09:08.708Z,21.82
2018-08-19T02:09:40.291Z,21.84
2018-08-19T02:10:11.881Z,21.81
2018-08-19T02:10:43.590Z,21.80
2018-08-19T02:11:15.175Z,21.78
2018-08-19T02:11:46.769Z,21.80
2018-08-19T02:12:18.469Z,21.81
2018-08-19T02:12:50.058Z,21.91
2018-08-19T02:13:21.648Z,21.98
2018-08-19T02:13:53.254Z,22.03
2018-08-19T02:14:24.863Z,22.05
2018-08-19T02:14:56.452Z,22.06
2018-08-19T02:15:28.048Z,22.05
2018-08-19T02:15:59.648Z,22.06
2018-08-19T02:16:31.253Z,22.10
2018-08-19T02:17:02.849Z,22.09
2018-08-19T02:17:34.500Z,22.06
2018-08-19T02:18:06.107Z,22.01
2018-08-19T02:18:37.700Z,22.00
2018-08-19T02:19:09.336Z,21.98
2018-08-19T02:19:40.972Z,21.98
2018-08-19T02:20:12.551Z,21.93
2018-08-19T02:20:44.261Z,21.90
2018-08-19T02:21:15.768Z,21.87
2018-08-19T02:21:47.370Z,21.84
2018-08-19T02:22:18.964Z,21.86
2018-08-19T02:22:50.550Z,21.91
2018-08-19T02:23:22.137Z,21.97
2018-08-19T02:23:53.749Z,22.03
2018-08-19T02:24:25.357Z,22.06
2018-08-19T02:24:56.988Z,22.09
2018-08-19T02:25:28.576Z,22.09
2018-08-19T02:26:00.173Z,22.13
2018-08-19T02:26:31.767Z,22.13
2018-08-19T02:27:03.347Z,22.13
2018-08-19T02:27:34.950Z,22.13
2018-08-19T02:28:06.541Z,22.10
2018-08-19T02:28:38.128Z,22.05
2018-08-19T02:29:09.706Z,22.04
2018-08-19T02:29:41.310Z,22.00
2018-08-19T02:30:13.004Z,21.99
2018-08-19T02:30:44.597Z,21.94
2018-08-19T02:31:16.203Z,21.90
2018-08-19T02:31:47.800Z,21.88
2018-08-19T02:32:19.406Z,21.85
2018-08-19T02:32:50.999Z,21.83
2018-08-19T02:33:22.592Z,21.78
2018-08-19T02:33:54.185Z,21.79
2018-08-19T02:34:25.776Z,21.80
2018-08-19T02:34:57.369Z,21.83
2018-08-19T02:35:29.000Z,21.90
2018-08-19T02:36:00.650Z,21.96
2018-08-19T02:36:32.264Z,22.01
2018-08-19T02:37:03.843Z,22.03
2018-08-19T02:37:35.445Z,22.04
2018-08-19T02:38:07.041Z,22.00
2018-08-19T02:38:38.645Z,21.96
2018-08-19T02:39:10.240Z,21.91
2018-08-19T02:39:41.840Z,21.92
2018-08-19T02:40:13.437Z,21.95
2018-08-19T02:40:45.046Z,22.01
2018-08-19T02:41:16.685Z,21.99
2018-08-19T02:41:48.262Z,21.99
2018-08-19T02:42:19.856Z,22.03
2018-08-19T02:42:51.449Z,22.09
2018-08-19T02:43:23.042Z,22.15
2018-08-19T02:43:54.619Z,22.18
2018-08-19T02:44:26.228Z,22.16
2018-08-19T02:44:57.833Z,22.14
2018-08-19T02:45:29.433Z,22.10
2018-08-19T02:46:01.045Z,22.12
2018-08-19T02:46:32.680Z,22.10
2018-08-19T02:47:04.286Z,22.06
2018-08-19T02:47:35.868Z,22.04
2018-08-19T02:48:07.478Z,22.00
2018-08-19T02:48:39.082Z,21.97
2018-08-19T02:49:10.678Z,21.97
2018-08-19T02:49:42.271Z,21.99
2018-08-19T02:50:13.864Z,22.02
2018-08-19T02:50:45.442Z,22.04
2018-08-19T02:51:17.046Z,22.04
2018-08-19T02:51:48.641Z,21.99
2018-08-19T02:52:20.223Z,21.97
2018-08-19T02:52:51.812Z,21.93
2018-08-19T02:53:23.405Z,21.90
2018-08-19T02:53:54.988Z,21.85
2018-08-19T02:54:26.585Z,21.87
2018-08-19T02:54:58.184Z,21.86
2018-08-19T02:55:29.776Z,21.85
2018-08-19T02:56:01.369Z,21.83
2018-08-19T02:56:32.950Z,21.80
2018-08-19T02:57:04.541Z,21.79
2018-08-19T02:57:36.127Z,21.70
2018-08-19T02:58:07.720Z,21.85
2018-08-19T02:58:39.336Z,21.88
2018-08-19T02:59:10.978Z,21.91
2018-08-19T02:59:42.568Z,21.93
2018-08-19T03:00:14.171Z,21.91
2018-08-19T03:00:45.765Z,21.90
2018-08-19T03:01:17.351Z,21.90
2018-08-19T03:01:48.934Z,21.94
2018-08-19T03:02:20.520Z,21.97
2018-08-19T03:02:52.168Z,21.98
2018-08-19T03:03:23.774Z,21.97
2018-08-19T03:03:55.365Z,21.95
2018-08-19T03:04:26.972Z,21.93
2018-08-19T03:04:58.608Z,21.91
2018-08-19T03:05:30.211Z,21.89
2018-08-19T03:06:01.820Z,21.87
2018-08-19T03:06:33.424Z,21.89
2018-08-19T03:07:05.028Z,21.92
2018-08-19T03:07:36.619Z,21.97
2018-08-19T03:08:08.222Z,22.03
2018-08-19T03:08:39.812Z,22.06
2018-08-19T03:09:11.404Z,22.07
2018-08-19T03:09:42.994Z,22.10
2018-08-19T03:10:14.592Z,22.16
2018-08-19T03:10:46.188Z,22.23
2018-08-19T03:11:17.788Z,22.26
2018-08-19T03:11:49.384Z,22.29
2018-08-19T03:12:20.976Z,22.28
2018-08-19T03:12:52.650Z,22.28
2018-08-19T03:13:24.262Z,22.31
2018-08-19T03:13:55.849Z,22.31
2018-08-19T03:14:27.439Z,22.30
2018-08-19T03:14:59.079Z,22.31
2018-08-19T03:15:30.639Z,22.31
2018-08-19T03:16:02.247Z,22.30
2018-08-19T03:16:33.896Z,22.33
2018-08-19T03:17:05.502Z,22.34
2018-08-19T03:17:37.101Z,22.35
2018-08-19T03:18:08.728Z,22.36
2018-08-19T03:18:40.338Z,22.36
2018-08-19T03:19:11.950Z,22.35
2018-08-19T03:19:43.559Z,22.38
2018-08-19T03:20:15.162Z,22.41
2018-08-19T03:20:46.767Z,22.37
2018-08-19T03:21:18.378Z,22.32
2018-08-19T03:21:49.999Z,22.27
2018-08-19T03:22:21.602Z,22.23
2018-08-19T03:22:53.247Z,22.16
2018-08-19T03:23:24.845Z,22.15
2018-08-19T03:23:56.439Z,22.15
2018-08-19T03:24:28.035Z,22.17
2018-08-19T03:24:59.629Z,22.15
2018-08-19T03:25:31.239Z,22.15
2018-08-19T03:26:02.886Z,22.16
2018-08-19T03:26:34.480Z,22.12
2018-08-19T03:27:06.073Z,22.10
2018-08-19T03:27:37.664Z,22.15
2018-08-19T03:28:09.256Z,22.19
2018-08-19T03:28:40.849Z,22.17
2018-08-19T03:29:12.436Z,22.13
2018-08-19T03:29:44.042Z,22.12
2018-08-19T03:30:15.653Z,22.12
2018-08-19T03:30:47.243Z,22.12
2018-08-19T03:31:18.862Z,22.11
2018-08-19T03:31:50.452Z,22.11
2018-08-19T03:32:22.042Z,22.10
2018-08-19T03:32:53.657Z,22.08
2018-08-19T03:33:25.263Z,22.06
2018-08-19T03:33:56.842Z,22.05
2018-08-19T03:34:28.443Z,22.06
2018-08-19T03:35:00.024Z,22.07
2018-08-19T03:35:31.622Z,22.08
2018-08-19T03:36:03.216Z,22.09
2018-08-19T03:36:34.834Z,22.11
2018-08-19T03:37:06.425Z,22.12
2018-08-19T03:37:38.022Z,22.13
2018-08-19T03:38:09.787Z,22.14
2018-08-19T03:38:41.265Z,22.10
2018-08-19T03:39:12.851Z,22.06
2018-08-19T03:39:44.458Z,21.98
2018-08-19T03:40:16.054Z,21.92
2018-08-19T03:40:47.658Z,21.89
2018-08-19T03:41:19.292Z,21.91
2018-08-19T03:41:50.884Z,21.92
2018-08-19T03:42:22.480Z,21.93
2018-08-19T03:42:54.112Z,21.90
2018-08-19T03:43:25.716Z,21.90
2018-08-19T03:43:57.298Z,21.86
2018-08-19T03:44:28.897Z,21.84
2018-08-19T03:45:00.495Z,21.86
2018-08-19T03:45:32.092Z,21.89
2018-08-19T03:46:03.694Z,21.91
2018-08-19T03:46:35.302Z,21.92
2018-08-19T03:47:06.959Z,21.89
2018-08-19T03:47:38.556Z,21.83
2018-08-19T03:48:10.168Z,21.79
2018-08-19T03:48:41.759Z,21.75
2018-08-19T03:49:13.362Z,21.72
2018-08-19T03:49:44.967Z,21.67
2018-08-19T03:50:16.552Z,21.64
2018-08-19T03:50:48.135Z,21.62
2018-08-19T03:51:19.724Z,21.62
2018-08-19T03:51:51.316Z,21.66
2018-08-19T03:52:22.952Z,21.69
2018-08-19T03:52:54.554Z,21.67
2018-08-19T03:53:26.144Z,21.67
2018-08-19T03:53:57.746Z,21.70
2018-08-19T03:54:29.342Z,21.73
2018-08-19T03:55:00.972Z,21.75
2018-08-19T03:55:32.618Z,21.75
2018-08-19T03:56:04.210Z,21.71
2018-08-19T03:56:35.818Z,21.59
2018-08-19T03:57:07.412Z,21.68
2018-08-19T03:57:39.012Z,21.68
2018-08-19T03:58:10.608Z,21.71
2018-08-19T03:58:42.222Z,21.74
2018-08-19T03:59:13.870Z,21.76
2018-08-19T03:59:45.478Z,21.77
2018-08-19T04:00:17.083Z,21.79
2018-08-19T04:00:48.692Z,21.79
2018-08-19T04:01:20.281Z,21.77
2018-08-19T04:01:51.858Z,21.77
2018-08-19T04:02:23.459Z,21.77
2018-08-19T04:02:55.169Z,21.76
2018-08-19T04:03:26.747Z,21.77
2018-08-19T04:03:58.366Z,21.86
2018-08-19T04:04:29.955Z,21.92
2018-08-19T04:05:01.561Z,21.92
2018-08-19T04:05:33.152Z,21.93
2018-08-19T04:06:04.740Z,21.97
2018-08-19T04:06:36.328Z,22.06
2018-08-19T04:07:07.934Z,21.86
2018-08-19T04:07:39.527Z,22.09
2018-08-19T04:08:11.131Z,22.08
2018-08-19T04:08:42.763Z,22.10
2018-08-19T04:09:14.367Z,22.09
2018-08-19T04:09:45.948Z,22.08
2018-08-19T04:10:17.535Z,22.05
2018-08-19T04:10:49.158Z,22.01
2018-08-19T04:11:20.748Z,21.98
2018-08-19T04:11:52.354Z,21.95
2018-08-19T04:12:23.957Z,21.93
2018-08-19T04:12:55.535Z,21.89
2018-08-19T04:13:27.136Z,21.89
2018-08-19T04:13:58.742Z,21.89
2018-08-19T04:14:30.325Z,21.90
2018-08-19T04:15:01.919Z,21.92
2018-08-19T04:15:33.508Z,21.92
2018-08-19T04:16:05.149Z,21.91
2018-08-19T04:16:36.743Z,21.90
2018-08-19T04:17:08.346Z,21.88
2018-08-19T04:17:39.942Z,21.92
2018-08-19T04:18:11.543Z,21.94
2018-08-19T04:18:43.157Z,21.94
2018-08-19T04:19:14.762Z,21.95
2018-08-19T04:19:46.367Z,21.95
2018-08-19T04:20:17.960Z,21.96
2018-08-19T04:20:49.534Z,21.96
2018-08-19T04:21:21.151Z,21.96
2018-08-19T04:21:52.727Z,21.94
2018-08-19T04:22:24.321Z,21.94
2018-08-19T04:22:55.931Z,21.91
2018-08-19T04:23:27.524Z,21.89
2018-08-19T04:23:59.135Z,21.89
2018-08-19T04:24:30.725Z,21.89
2018-08-19T04:25:02.339Z,21.88
2018-08-19T04:25:33.943Z,21.86
2018-08-19T04:26:05.585Z,21.85
2018-08-19T04:26:37.166Z,21.85
2018-08-19T04:27:08.760Z,21.88
2018-08-19T04:27:40.361Z,21.88
2018-08-19T04:28:11.952Z,21.86
2018-08-19T04:28:43.553Z,21.86
2018-08-19T04:29:15.143Z,21.84
2018-08-19T04:29:46.732Z,21.81
2018-08-19T04:30:18.324Z,21.87
2018-08-19T04:30:49.931Z,21.89
2018-08-19T04:31:21.572Z,21.89
2018-08-19T04:31:53.163Z,21.85
2018-08-19T04:32:24.757Z,21.84
2018-08-19T04:32:56.338Z,21.85
2018-08-19T04:33:27.929Z,21.82
2018-08-19T04:33:59.578Z,21.83
2018-08-19T04:34:31.182Z,21.86
2018-08-19T04:35:02.790Z,21.84
2018-08-19T04:35:34.375Z,21.83
2018-08-19T04:36:05.954Z,21.86
2018-08-19T04:36:37.531Z,21.87
2018-08-19T04:37:09.124Z,21.89
2018-08-19T04:37:40.716Z,21.89
2018-08-19T04:38:12.316Z,21.88
2018-08-19T04:38:43.921Z,21.86
2018-08-19T04:39:15.547Z,21.88
2018-08-19T04:39:47.131Z,21.87
2018-08-19T04:40:18.710Z,21.89
2018-08-19T04:40:50.290Z,21.91
2018-08-19T04:41:21.920Z,21.91
2018-08-19T04:41:53.512Z,21.93
2018-08-19T04:42:25.175Z,21.95
2018-08-19T04:42:56.726Z,21.97
2018-08-19T04:43:28.320Z,21.98
2018-08-19T04:43:59.899Z,22.00
2018-08-19T04:44:31.506Z,22.05
2018-08-19T04:45:03.086Z,22.04
2018-08-19T04:45:34.681Z,22.06
2018-08-19T04:46:06.273Z,22.07
2018-08-19T04:46:37.891Z,22.06
2018-08-19T04:47:09.492Z,22.04
2018-08-19T04:47:41.084Z,22.00
2018-08-19T04:48:12.686Z,21.98
2018-08-19T04:48:44.295Z,21.95
2018-08-19T04:49:15.887Z,21.92
2018-08-19T04:49:47.491Z,21.91
2018-08-19T04:50:19.102Z,21.94
2018-08-19T04:50:50.705Z,21.95
2018-08-19T04:51:22.341Z,21.96
2018-08-19T04:51:53.940Z,21.95
2018-08-19T04:52:25.542Z,21.94
2018-08-19T04:52:57.188Z,21.98
2018-08-19T04:53:28.790Z,21.96
2018-08-19T04:54:00.378Z,21.98
2018-08-19T04:54:31.972Z,22.00
2018-08-19T04:55:03.568Z,22.02
2018-08-19T04:55:35.164Z,22.04
2018-08-19T04:56:06.801Z,22.03
2018-08-19T04:56:38.392Z,22.01
2018-08-19T04:57:09.981Z,22.02
2018-08-19T04:57:41.591Z,22.05
2018-08-19T04:58:13.181Z,22.08
2018-08-19T04:58:44.790Z,22.11
2018-08-19T04:59:16.394Z,22.09
2018-08-19T04:59:47.975Z,22.08
2018-08-19T05:00:19.568Z,22.11
2018-08-19T05:00:51.169Z,22.12
2018-08-19T05:01:22.812Z,22.12
2018-08-19T05:01:54.412Z,22.08
2018-08-19T05:02:26.048Z,22.07
2018-08-19T05:02:57.710Z,22.06
2018-08-19T05:03:29.295Z,22.05
2018-08-19T05:04:00.887Z,22.05
2018-08-19T05:04:32.485Z,22.04
2018-08-19T05:05:04.085Z,22.02
2018-08-19T05:05:35.685Z,22.04
2018-08-19T05:06:07.294Z,22.07
2018-08-19T05:06:38.884Z,22.04
2018-08-19T05:07:10.488Z,22.05
2018-08-19T05:07:42.134Z,22.07
2018-08-19T05:08:13.937Z,22.07
2018-08-19T05:08:45.340Z,22.06
2018-08-19T05:09:16.976Z,22.06
2018-08-19T05:09:48.582Z,22.06
2018-08-19T05:10:20.176Z,22.08
2018-08-19T05:10:51.768Z,22.13
2018-08-19T05:11:23.409Z,22.16
2018-08-19T05:11:55.004Z,22.19
2018-08-19T05:12:26.596Z,22.19
2018-08-19T05:12:58.205Z,22.20
2018-08-19T05:13:29.793Z,22.23
2018-08-19T05:14:01.390Z,22.26
2018-08-19T05:14:32.984Z,22.25
2018-08-19T05:15:04.590Z,22.25
2018-08-19T05:15:36.197Z,22.24
2018-08-19T05:16:07.836Z,22.23
2018-08-19T05:16:39.468Z,22.19
2018-08-19T05:17:11.057Z,22.20
2018-08-19T05:17:42.651Z,22.22
2018-08-19T05:18:14.242Z,22.19
2018-08-19T05:18:45.843Z,22.15
2018-08-19T05:19:17.455Z,22.14
2018-08-19T05:19:49.038Z,22.14
2018-08-19T05:20:20.636Z,22.13
2018-08-19T05:20:52.229Z,22.14
2018-08-19T05:21:23.820Z,22.13
2018-08-19T05:21:55.448Z,22.14
2018-08-19T05:22:27.093Z,22.13
2018-08-19T05:22:58.714Z,22.14
2018-08-19T05:23:30.364Z,22.14
2018-08-19T05:24:01.967Z,22.02
2018-08-19T05:24:33.561Z,22.14
2018-08-19T05:25:05.164Z,22.13
2018-08-19T05:25:36.756Z,22.11
2018-08-19T05:26:08.344Z,22.12
2018-08-19T05:26:39.922Z,22.12
2018-08-19T05:27:11.512Z,22.13
2018-08-19T05:27:43.154Z,22.12
2018-08-19T05:28:14.777Z,22.17
2018-08-19T05:28:46.362Z,22.18
2018-08-19T05:29:18.010Z,22.16
2018-08-19T05:29:49.617Z,22.18
2018-08-19T05:30:21.226Z,22.22
2018-08-19T05:30:52.835Z,22.23
2018-08-19T05:31:24.468Z,22.24
2018-08-19T05:31:56.073Z,22.26
2018-08-19T05:32:27.667Z,22.27
2018-08-19T05:32:59.268Z,22.20
2018-08-19T05:33:30.906Z,22.28
2018-08-19T05:34:02.514Z,22.28
2018-08-19T05:34:34.122Z,22.25
2018-08-19T05:35:05.720Z,22.26
2018-08-19T05:35:37.388Z,22.27
2018-08-19T05:36:08.966Z,22.26
2018-08-19T05:36:40.542Z,22.26
2018-08-19T05:37:12.151Z,22.27
2018-08-19T05:37:43.755Z,22.27
2018-08-19T05:38:15.403Z,22.27
2018-08-19T05:38:47.014Z,22.28
2018-08-19T05:39:18.653Z,22.29
2018-08-19T05:39:50.230Z,22.30
2018-08-19T05:40:21.820Z,22.32
2018-08-19T05:40:53.403Z,22.33
2018-08-19T05:41:24.983Z,22.34
2018-08-19T05:41:56.571Z,22.32
2018-08-19T05:42:28.160Z,22.32
2018-08-19T05:42:59.770Z,22.34
2018-08-19T05:43:31.359Z,22.35
2018-08-19T05:44:02.958Z,22.35
2018-08-19T05:44:34.599Z,22.36
2018-08-19T05:45:06.188Z,22.35
2018-08-19T05:45:37.789Z,22.36
2018-08-19T05:46:09.384Z,22.36
2018-08-19T05:46:41.015Z,22.37
2018-08-19T05:47:12.686Z,22.39
2018-08-19T05:47:44.241Z,22.39
2018-08-19T05:48:15.846Z,22.41
2018-08-19T05:48:47.426Z,22.43
2018-08-19T05:49:19.016Z,22.43
2018-08-19T05:49:50.654Z,22.45
2018-08-19T05:50:22.242Z,22.45
2018-08-19T05:50:53.839Z,22.46
2018-08-19T05:51:25.450Z,22.47
2018-08-19T05:51:57.054Z,22.47
2018-08-19T05:52:28.657Z,22.51
2018-08-19T05:53:00.789Z,22.54
2018-08-19T05:53:32.380Z,22.55
2018-08-19T05:54:04.020Z,22.57
2018-08-19T05:54:35.604Z,22.60
2018-08-19T05:55:07.192Z,22.63
2018-08-19T05:55:38.847Z,22.68
2018-08-19T05:56:10.426Z,22.69
2018-08-19T05:56:42.002Z,22.71
2018-08-19T05:57:13.595Z,22.74
2018-08-19T05:57:45.198Z,22.77
2018-08-19T05:58:16.793Z,22.78
2018-08-19T05:58:48.419Z,22.79
2018-08-19T05:59:20.020Z,22.78
2018-08-19T05:59:51.621Z,22.80
2018-08-19T06:00:23.216Z,22.80
2018-08-19T06:00:54.812Z,22.82
2018-08-19T06:01:26.405Z,22.87
2018-08-19T06:01:58.010Z,22.90
2018-08-19T06:02:29.662Z,22.92
2018-08-19T06:03:01.267Z,22.95
2018-08-19T06:03:33.208Z,22.95
2018-08-19T06:04:05.621Z,22.98
2018-08-19T06:04:37.172Z,22.97
2018-08-19T06:05:08.765Z,22.99
2018-08-19T06:05:40.361Z,22.99
2018-08-19T06:06:11.953Z,23.01
2018-08-19T06:06:43.541Z,23.00
2018-08-19T06:07:15.144Z,22.97
2018-08-19T06:07:46.750Z,22.98
2018-08-19T06:08:18.333Z,22.97
2018-08-19T06:08:49.914Z,22.98
2018-08-19T06:09:21.504Z,22.99
2018-08-19T06:09:53.096Z,23.01
2018-08-19T06:10:24.685Z,23.02
2018-08-19T06:10:56.330Z,23.02
2018-08-19T06:11:27.923Z,23.05
2018-08-19T06:11:59.498Z,23.08
2018-08-19T06:12:31.098Z,23.07
2018-08-19T06:13:02.704Z,23.11
2018-08-19T06:13:34.334Z,23.12
2018-08-19T06:14:05.938Z,23.15
2018-08-19T06:14:37.532Z,23.17
2018-08-19T06:15:09.111Z,23.21
2018-08-19T06:15:40.748Z,23.23
2018-08-19T06:16:12.340Z,23.25
2018-08-19T06:16:43.928Z,23.26
2018-08-19T06:17:15.531Z,23.26
2018-08-19T06:17:47.124Z,23.27
2018-08-19T06:18:18.712Z,23.27
2018-08-19T06:18:50.340Z,23.28
2018-08-19T06:19:21.928Z,23.30
2018-08-19T06:19:53.520Z,23.32
2018-08-19T06:20:25.115Z,23.35
2018-08-19T06:20:56.737Z,23.35
2018-08-19T06:21:28.315Z,23.39
2018-08-19T06:21:59.962Z,23.38
2018-08-19T06:22:31.538Z,23.38
2018-08-19T06:23:03.132Z,23.40
2018-08-19T06:23:34.734Z,23.41
2018-08-19T06:24:06.315Z,23.43
2018-08-19T06:24:37.976Z,23.46
2018-08-19T06:25:09.518Z,23.47
2018-08-19T06:25:41.098Z,23.51
2018-08-19T06:26:12.699Z,23.53
2018-08-19T06:26:44.302Z,23.53
2018-08-19T06:27:15.892Z,23.53
2018-08-19T06:27:47.479Z,23.52
2018-08-19T06:28:19.058Z,23.54
2018-08-19T06:28:50.634Z,23.55
2018-08-19T06:29:22.234Z,23.54
2018-08-19T06:29:53.838Z,23.56
2018-08-19T06:30:25.418Z,23.58
2018-08-19T06:30:57.041Z,23.61
2018-08-19T06:31:28.646Z,23.64
2018-08-19T06:32:00.236Z,23.66
2018-08-19T06:32:31.828Z,23.69
2018-08-19T06:33:03.480Z,23.70
2018-08-19T06:33:35.068Z,23.73
2018-08-19T06:34:06.656Z,23.73
2018-08-19T06:34:38.329Z,23.72
2018-08-19T06:35:09.890Z,23.74
2018-08-19T06:35:41.476Z,23.67
2018-08-19T06:36:13.059Z,23.68
2018-08-19T06:36:44.653Z,23.72
2018-08-19T06:37:16.255Z,23.73
2018-08-19T06:37:47.855Z,23.73
2018-08-19T06:38:19.492Z,23.75
2018-08-19T06:38:51.080Z,23.79
2018-08-19T06:39:22.668Z,23.83
2018-08-19T06:39:54.279Z,23.86
2018-08-19T06:40:25.875Z,23.87
2018-08-19T06:40:57.469Z,23.80
2018-08-19T06:41:29.060Z,23.73
2018-08-19T06:42:00.662Z,23.72
2018-08-19T06:42:32.268Z,23.72
2018-08-19T06:43:03.941Z,23.75
2018-08-19T06:43:35.548Z,23.77
2018-08-19T06:44:07.155Z,23.80
2018-08-19T06:44:38.749Z,23.83
2018-08-19T06:45:10.325Z,23.86
2018-08-19T06:45:41.924Z,23.89
2018-08-19T06:46:13.529Z,23.91
2018-08-19T06:46:45.129Z,23.93
2018-08-19T06:47:16.722Z,23.95
2018-08-19T06:47:48.312Z,23.99
2018-08-19T06:48:19.940Z,23.98
2018-08-19T06:48:51.550Z,23.99
2018-08-19T06:49:23.147Z,23.97
2018-08-19T06:49:54.727Z,24.00
2018-08-19T06:50:26.315Z,24.01
2018-08-19T06:50:57.904Z,24.02
2018-08-19T06:51:29.510Z,24.05
2018-08-19T06:52:01.099Z,24.06